createdAt,value
2018-07-21T00:01:17.914Z,10.80
2018-07-21T00:03:46.613Z,10.77
2018-07-21T00:06:15.555Z,9.90
2018-07-21T00:08:44.253Z,11.40
2018-07-21T00:11:13.076Z,10.50
2018-07-21T00:13:43.054Z,10.53
2018-07-21T00:16:11.724Z,10.97
2018-07-21T00:18:40.387Z,10.47
2018-07-21T00:21:09.323Z,10.10
2018-07-21T00:23:38.018Z,10.27
2018-07-21T00:26:06.786Z,10.23
2018-07-21T00:28:35.395Z,8.93
2018-07-21T00:31:04.055Z,10.20
2018-07-21T00:33:32.792Z,8.90
2018-07-21T00:36:01.406Z,9.30
2018-07-21T00:38:44.358Z,9.60
2018-07-21T00:41:13.039Z,10.00
2018-07-21T00:43:41.654Z,9.27
2018-07-21T00:46:10.220Z,9.90
2018-07-21T00:48:39.001Z,10.13
2018-07-21T00:51:07.739Z,10.00
2018-07-21T00:53:36.418Z,10.50
2018-07-21T00:56:05.118Z,11.00
2018-07-21T00:58:33.953Z,10.50
2018-07-21T01:01:02.591Z,10.57
2018-07-21T01:03:31.259Z,10.30
2018-07-21T01:05:59.865Z,10.03
2018-07-21T01:08:28.552Z,10.40
2018-07-21T01:10:57.334Z,9.83
2018-07-21T01:13:25.907Z,9.33
2018-07-21T01:15:54.516Z,10.60
2018-07-21T01:18:23.192Z,10.03
2018-07-21T01:20:51.912Z,10.63
2018-07-21T01:23:20.627Z,10.50
2018-07-21T01:25:49.352Z,11.40
2018-07-21T01:28:18.015Z,10.77
2018-07-21T01:30:46.611Z,9.97
2018-07-21T01:33:15.222Z,12.00
2018-07-21T01:35:43.866Z,10.33
2018-07-21T01:38:12.498Z,9.73
2018-07-21T01:40:41.288Z,10.80
2018-07-21T01:43:09.946Z,11.20
2018-07-21T01:45:38.665Z,10.97
2018-07-21T01:48:07.574Z,10.73
2018-07-21T01:50:36.285Z,11.33
2018-07-21T01:53:04.878Z,10.57
2018-07-21T01:55:33.930Z,11.03
2018-07-21T01:58:02.700Z,11.40
2018-07-21T02:00:31.656Z,12.77
2018-07-21T02:03:00.306Z,11.70
2018-07-21T02:05:28.993Z,11.27
2018-07-21T02:07:57.698Z,12.23
2018-07-21T02:10:26.345Z,11.67
2018-07-21T02:12:54.982Z,12.27
2018-07-21T02:15:23.619Z,11.73
2018-07-21T02:17:53.110Z,11.30
2018-07-21T02:20:22.824Z,11.77
2018-07-21T02:22:51.546Z,11.80
2018-07-21T02:25:20.189Z,12.97
2018-07-21T02:27:48.984Z,11.03
2018-07-21T02:30:17.561Z,11.03
2018-07-21T02:32:46.234Z,11.17
2018-07-21T02:35:14.957Z,10.80
2018-07-21T02:37:43.667Z,12.00
2018-07-21T02:40:12.299Z,11.37
2018-07-21T02:42:41.047Z,12.50
2018-07-21T02:45:09.751Z,11.60
2018-07-21T02:47:38.434Z,11.33
2018-07-21T02:50:07.201Z,10.40
2018-07-21T02:52:35.872Z,11.47
2018-07-21T02:55:04.581Z,10.67
2018-07-21T02:57:33.151Z,11.50
2018-07-21T03:00:01.866Z,10.97
2018-07-21T03:02:30.543Z,12.03
2018-07-21T03:04:59.314Z,12.10
2018-07-21T03:07:28.019Z,11.57
2018-07-21T03:09:56.626Z,12.30
2018-07-21T03:12:26.427Z,11.80
2018-07-21T03:14:55.074Z,10.03
2018-07-21T03:17:23.832Z,10.70
2018-07-21T03:19:52.517Z,10.63
2018-07-21T03:22:21.120Z,10.33
2018-07-21T03:24:49.802Z,11.87
2018-07-21T03:27:18.661Z,10.60
2018-07-21T03:29:47.396Z,8.97
2018-07-21T03:32:16.151Z,10.17
2018-07-21T03:34:44.818Z,10.90
2018-07-21T03:37:13.632Z,10.50
2018-07-21T03:39:42.255Z,10.60
2018-07-21T03:42:11.017Z,10.50
2018-07-21T03:44:39.724Z,9.90
2018-07-21T03:47:08.707Z,11.17
2018-07-21T03:49:37.395Z,11.00
2018-07-21T03:52:06.177Z,10.70
2018-07-21T03:54:34.936Z,9.80
2018-07-21T03:57:03.574Z,10.67
2018-07-21T03:59:32.425Z,10.23
2018-07-21T04:02:00.948Z,10.23
2018-07-21T04:04:29.552Z,10.27
2018-07-21T04:06:58.145Z,9.87
2018-07-21T04:09:26.777Z,10.47
2018-07-21T04:11:55.552Z,10.70
2018-07-21T04:14:24.324Z,9.70
2018-07-21T04:16:53.036Z,9.13
2018-07-21T04:19:21.742Z,10.80
2018-07-21T04:21:50.465Z,8.90
2018-07-21T04:24:19.155Z,9.77
2018-07-21T04:26:47.574Z,10.23
2018-07-21T04:29:16.280Z,8.60
2018-07-21T04:31:44.897Z,9.13
2018-07-21T04:34:13.449Z,8.10
2018-07-21T04:36:42.224Z,7.73
2018-07-21T04:39:11.960Z,10.33
2018-07-21T04:41:41.248Z,8.90
2018-07-21T04:44:09.978Z,9.60
2018-07-21T04:46:38.624Z,9.60
2018-07-21T04:49:07.362Z,8.07
2018-07-21T04:51:36.127Z,9.40
2018-07-21T04:54:04.820Z,9.53
2018-07-21T04:56:33.421Z,9.13
2018-07-21T04:59:02.191Z,8.03
2018-07-21T05:01:30.839Z,9.10
2018-07-21T05:03:59.491Z,9.30
2018-07-21T05:06:28.108Z,9.10
2018-07-21T05:09:01.229Z,9.73
2018-07-21T05:11:29.801Z,9.27
2018-07-21T05:13:58.474Z,9.50
2018-07-21T05:16:27.019Z,9.43
2018-07-21T05:18:55.567Z,9.90
2018-07-21T05:21:25.710Z,9.20
2018-07-21T05:23:54.414Z,10.47
2018-07-21T05:26:23.294Z,9.80
2018-07-21T05:28:51.965Z,9.30
2018-07-21T05:31:20.579Z,8.83
2018-07-21T05:33:49.282Z,11.10
2018-07-21T05:36:18.858Z,10.50
2018-07-21T05:38:47.686Z,9.70
2018-07-21T05:41:16.311Z,10.33
2018-07-21T05:43:45.109Z,11.00
2018-07-21T05:46:13.784Z,10.07
2018-07-21T05:48:42.538Z,9.67
2018-07-21T05:51:11.139Z,10.00
2018-07-21T05:53:39.761Z,10.90
2018-07-21T05:56:08.470Z,11.23
2018-07-21T05:58:37.202Z,11.00
2018-07-21T06:01:05.814Z,10.30
2018-07-21T06:03:34.474Z,9.90
2018-07-21T06:06:03.341Z,10.00
2018-07-21T06:08:31.962Z,10.80
2018-07-21T06:11:00.694Z,11.23
2018-07-21T06:13:29.385Z,12.00
2018-07-21T06:15:58.364Z,10.53
2018-07-21T06:18:27.062Z,11.67
2018-07-21T06:20:55.733Z,12.10
2018-07-21T06:23:24.469Z,10.20
2018-07-21T06:25:53.110Z,11.80
2018-07-21T06:28:27.612Z,11.80
2018-07-21T06:30:56.281Z,10.70
2018-07-21T06:33:25.345Z,10.73
2018-07-21T06:35:54.613Z,14.27
2018-07-21T06:38:23.909Z,14.00
2018-07-21T06:40:52.551Z,11.70
2018-07-21T06:43:21.282Z,13.57
2018-07-21T06:45:50.132Z,12.37
2018-07-21T06:48:19.008Z,11.90
2018-07-21T06:50:47.804Z,12.60
2018-07-21T06:53:16.752Z,12.70
2018-07-21T06:55:45.539Z,12.00
2018-07-21T06:58:14.172Z,13.00
2018-07-21T07:00:42.870Z,12.63
2018-07-21T07:03:11.445Z,12.50
2018-07-21T07:05:40.177Z,12.83
2018-07-21T07:08:09.052Z,11.77
2018-07-21T07:10:37.919Z,11.67
2018-07-21T07:13:06.811Z,11.60
2018-07-21T07:15:35.529Z,11.40
2018-07-21T07:18:04.455Z,11.80
2018-07-21T07:20:33.264Z,12.47
2018-07-21T07:23:01.942Z,13.83
2018-07-21T07:25:30.788Z,15.43
2018-07-21T07:27:59.690Z,13.50
2018-07-21T07:30:28.346Z,14.70
2018-07-21T07:32:57.097Z,12.07
2018-07-21T07:35:25.675Z,11.73
2018-07-21T07:37:54.305Z,11.63
2018-07-21T07:40:23.064Z,11.67
2018-07-21T07:42:51.907Z,11.30
2018-07-21T07:45:20.872Z,18.87
2018-07-21T07:47:49.602Z,13.40
2018-07-21T07:50:18.572Z,11.87
2018-07-21T07:52:47.249Z,11.70
2018-07-21T07:55:16.046Z,11.23
2018-07-21T07:57:44.825Z,10.70
2018-07-21T08:00:13.344Z,10.30
2018-07-21T08:02:41.970Z,9.27
2018-07-21T08:05:10.662Z,10.03
2018-07-21T08:07:42.195Z,10.67
2018-07-21T08:10:10.910Z,9.80
2018-07-21T08:12:39.649Z,10.30
2018-07-21T08:15:08.400Z,11.43
2018-07-21T08:17:37.039Z,9.50
2018-07-21T08:20:05.831Z,9.13
2018-07-21T08:22:34.608Z,9.33
2018-07-21T08:25:03.448Z,8.73
2018-07-21T08:27:32.145Z,8.97
2018-07-21T08:30:01.023Z,9.73
2018-07-21T08:32:29.642Z,9.27
2018-07-21T08:34:58.477Z,9.73
2018-07-21T08:37:28.142Z,10.80
2018-07-21T08:39:56.904Z,12.00
2018-07-21T08:42:25.844Z,12.03
2018-07-21T08:44:54.638Z,11.90
2018-07-21T08:47:23.367Z,10.53
2018-07-21T08:49:52.236Z,10.73
2018-07-21T08:52:21.082Z,10.80
2018-07-21T08:54:49.812Z,10.93
2018-07-21T08:57:18.670Z,11.80
2018-07-21T08:59:47.520Z,11.00
2018-07-21T09:02:16.200Z,11.60
2018-07-21T09:04:44.945Z,11.20
2018-07-21T09:07:13.612Z,11.33
2018-07-21T09:09:43.418Z,11.70
2018-07-21T09:12:12.333Z,11.70
2018-07-21T09:14:41.374Z,11.07
2018-07-21T09:17:10.220Z,11.47
2018-07-21T09:19:38.912Z,10.30
2018-07-21T09:22:07.507Z,10.43
2018-07-21T09:24:36.205Z,11.20
2018-07-21T09:27:04.868Z,11.57
2018-07-21T09:29:33.571Z,12.30
2018-07-21T09:32:02.599Z,13.40
2018-07-21T09:34:31.420Z,12.40
2018-07-21T09:37:00.315Z,12.00
2018-07-21T09:39:29.029Z,12.73
2018-07-21T09:41:57.896Z,11.87
2018-07-21T09:44:26.740Z,12.00
2018-07-21T09:46:55.517Z,12.40
2018-07-21T09:49:24.271Z,12.83
2018-07-21T09:51:53.023Z,14.60
2018-07-21T09:54:21.736Z,12.87
2018-07-21T09:56:50.469Z,14.60
2018-07-21T09:59:19.333Z,16.07
2018-07-21T10:01:48.123Z,14.90
2018-07-21T10:04:16.847Z,15.87
2018-07-21T10:06:45.696Z,14.70
2018-07-21T10:09:14.576Z,16.70
2018-07-21T10:11:43.196Z,16.60
2018-07-21T10:14:11.983Z,11.47
2018-07-21T10:16:40.871Z,14.53
2018-07-21T10:19:11.761Z,17.57
2018-07-21T10:21:40.449Z,16.77
2018-07-21T10:24:14.282Z,17.60
2018-07-21T10:26:48.100Z,17.13
2018-07-21T10:31:52.725Z,16.17
2018-07-21T10:34:21.461Z,17.03
2018-07-21T10:36:50.181Z,18.30
2018-07-21T10:39:18.785Z,18.43
2018-07-21T10:41:47.699Z,17.67
2018-07-21T10:44:16.450Z,17.60
2018-07-21T10:46:45.165Z,15.90
2018-07-21T10:49:13.760Z,17.83
2018-07-21T10:51:42.387Z,15.87
2018-07-21T10:54:11.086Z,18.20
2018-07-21T10:56:39.822Z,17.87
2018-07-21T10:59:08.551Z,17.47
2018-07-21T11:01:37.209Z,17.40
2018-07-21T11:04:05.888Z,17.57
2018-07-21T11:06:34.526Z,15.37
2018-07-21T11:09:03.340Z,16.03
2018-07-21T11:11:32.078Z,14.50
2018-07-21T11:14:00.877Z,16.90
2018-07-21T11:16:29.601Z,15.97
2018-07-21T11:18:58.302Z,17.80
2018-07-21T11:21:26.976Z,14.50
2018-07-21T11:23:55.672Z,15.23
2018-07-21T11:26:24.311Z,12.53
2018-07-21T11:28:53.022Z,14.93
2018-07-21T11:31:21.748Z,14.77
2018-07-21T11:33:51.249Z,14.03
2018-07-21T11:36:19.864Z,15.30
2018-07-21T11:38:48.622Z,16.47
2018-07-21T11:41:17.462Z,15.00
2018-07-21T11:43:46.249Z,15.60
2018-07-21T11:46:15.000Z,13.63
2018-07-21T11:48:43.711Z,16.30
2018-07-21T11:51:12.402Z,13.53
2018-07-21T11:53:41.048Z,15.77
2018-07-21T11:56:09.843Z,14.83
2018-07-21T11:58:38.515Z,11.50
2018-07-21T12:01:08.038Z,13.07
2018-07-21T12:03:36.771Z,13.63
2018-07-21T12:06:05.503Z,12.50
2018-07-21T12:08:34.251Z,14.67
2018-07-21T12:11:02.932Z,15.60
2018-07-21T12:13:31.661Z,14.77
2018-07-21T12:16:00.255Z,16.60
2018-07-21T12:18:28.911Z,16.30
2018-07-21T12:20:57.695Z,17.00
2018-07-21T12:23:26.391Z,13.87
2018-07-21T12:25:55.074Z,13.40
2018-07-21T12:28:23.770Z,15.93
2018-07-21T12:30:52.392Z,14.83
2018-07-21T12:33:21.024Z,14.10
2018-07-21T12:35:49.659Z,15.47
2018-07-21T12:38:18.275Z,14.80
2018-07-21T12:40:46.985Z,12.43
2018-07-21T12:43:15.679Z,13.57
2018-07-21T12:45:44.414Z,11.50
2018-07-21T12:48:13.178Z,11.90
2018-07-21T12:50:41.905Z,12.80
2018-07-21T12:53:10.587Z,12.63
2018-07-21T12:55:39.221Z,11.93
2018-07-21T12:58:08.029Z,11.20
2018-07-21T13:00:36.697Z,11.40
2018-07-21T13:03:05.575Z,12.07
2018-07-21T13:05:34.361Z,12.63
2018-07-21T13:08:03.057Z,13.33
2018-07-21T13:10:31.903Z,13.40
2018-07-21T13:13:00.726Z,12.43
2018-07-21T13:15:29.666Z,13.17
2018-07-21T13:17:58.485Z,11.97
2018-07-21T13:20:27.262Z,11.50
2018-07-21T13:22:55.973Z,11.63
2018-07-21T13:25:25.089Z,10.37
2018-07-21T13:27:54.053Z,11.47
2018-07-21T13:30:22.892Z,10.10
2018-07-21T13:32:51.547Z,11.20
2018-07-21T13:35:20.401Z,10.00
2018-07-21T13:37:53.551Z,8.90
2018-07-21T13:40:24.254Z,11.87
2018-07-21T13:43:01.115Z,10.07
2018-07-21T13:45:29.946Z,9.50
2018-07-21T13:47:58.714Z,9.23
2018-07-21T13:50:27.357Z,9.97
2018-07-21T13:52:55.958Z,10.27
2018-07-21T13:55:24.720Z,10.40
2018-07-21T13:57:53.381Z,11.40
2018-07-21T14:00:22.058Z,10.83
2018-07-21T14:02:50.825Z,9.07
2018-07-21T14:05:19.618Z,9.23
2018-07-21T14:07:48.312Z,8.20
2018-07-21T14:10:17.052Z,9.23
2018-07-21T14:12:45.653Z,8.70
2018-07-21T14:15:14.292Z,7.60
2018-07-21T14:17:42.947Z,7.27
2018-07-21T14:20:11.537Z,8.00
2018-07-21T14:22:40.397Z,7.03
2018-07-21T14:25:09.055Z,6.97
2018-07-21T14:27:38.822Z,5.00
2018-07-21T14:30:08.727Z,6.17
2018-07-21T14:32:37.695Z,6.70
2018-07-21T14:35:06.879Z,5.17
2018-07-21T14:37:35.476Z,5.60
2018-07-21T14:40:04.235Z,5.50
2018-07-21T14:42:33.074Z,5.33
2018-07-21T14:45:02.911Z,5.70
2018-07-21T14:47:31.526Z,5.23
2018-07-21T14:50:00.372Z,5.80
2018-07-21T14:52:28.957Z,4.60
2018-07-21T14:54:57.875Z,5.43
2018-07-21T14:57:26.502Z,5.50
2018-07-21T14:59:55.246Z,4.00
2018-07-21T15:02:23.889Z,4.60
2018-07-21T15:04:52.575Z,5.87
2018-07-21T15:07:21.392Z,5.37
2018-07-21T15:09:50.056Z,5.03
2018-07-21T15:12:18.666Z,4.90
2018-07-21T15:14:47.394Z,4.10
2018-07-21T15:17:16.205Z,4.27
2018-07-21T15:19:45.034Z,4.03
2018-07-21T15:22:13.689Z,4.30
2018-07-21T15:24:42.479Z,4.07
2018-07-21T15:27:11.231Z,3.87
2018-07-21T15:29:40.050Z,4.03
2018-07-21T15:32:08.943Z,3.90
2018-07-21T15:34:37.837Z,3.57
2018-07-21T15:37:07.009Z,3.70
2018-07-21T15:39:35.620Z,3.73
2018-07-21T15:42:04.416Z,3.73
2018-07-21T15:44:33.196Z,3.30
2018-07-21T15:47:01.918Z,3.80
2018-07-21T15:49:30.561Z,3.90
2018-07-21T15:51:59.253Z,4.20
2018-07-21T15:54:27.871Z,4.30
2018-07-21T15:56:56.521Z,3.67
2018-07-21T15:59:25.133Z,3.40
2018-07-21T16:01:53.709Z,4.80
2018-07-21T16:04:22.414Z,5.00
2018-07-21T16:06:51.110Z,5.33
2018-07-21T16:09:19.738Z,5.57
2018-07-21T16:11:48.441Z,5.00
2018-07-21T16:14:17.135Z,5.30
2018-07-21T16:16:45.923Z,5.90
2018-07-21T16:19:14.728Z,5.40
2018-07-21T16:21:43.631Z,5.70
2018-07-21T16:24:12.477Z,5.20
2018-07-21T16:26:41.425Z,5.17
2018-07-21T16:29:10.187Z,5.00
2018-07-21T16:31:38.890Z,6.93
2018-07-21T16:34:07.569Z,6.23
2018-07-21T16:36:36.235Z,6.50
2018-07-21T16:39:08.266Z,6.93
2018-07-21T16:41:36.891Z,7.60
2018-07-21T16:44:05.650Z,6.63
2018-07-21T16:46:34.455Z,7.50
2018-07-21T16:49:03.294Z,8.10
2018-07-21T16:51:32.106Z,7.10
2018-07-21T16:54:00.842Z,8.43
2018-07-21T16:56:29.665Z,6.70
2018-07-21T16:58:58.365Z,6.93
2018-07-21T17:01:27.087Z,7.73
2018-07-21T17:03:55.694Z,9.50
2018-07-21T17:06:25.591Z,7.53
2018-07-21T17:08:54.651Z,6.67
2018-07-21T17:11:23.441Z,6.20
2018-07-21T17:13:52.298Z,6.70
2018-07-21T17:16:21.755Z,6.97
2018-07-21T17:18:50.611Z,6.47
2018-07-21T17:21:19.374Z,6.67
2018-07-21T17:23:48.428Z,5.90
2018-07-21T17:26:18.222Z,5.37
2018-07-21T17:28:46.980Z,3.90
2018-07-21T17:31:15.927Z,4.10
2018-07-21T17:33:44.770Z,3.77
2018-07-21T17:39:08.454Z,3.30
2018-07-21T17:41:37.604Z,3.10
2018-07-21T17:44:06.266Z,3.67
2018-07-21T17:46:35.502Z,3.50
2018-07-21T17:49:04.348Z,3.07
2018-07-21T17:51:52.088Z,3.23
2018-07-21T17:54:21.026Z,3.07
2018-07-21T17:56:50.663Z,3.50
2018-07-21T17:59:20.740Z,2.30
2018-07-21T18:01:50.192Z,2.80
2018-07-21T18:04:21.164Z,2.80
2018-07-21T18:06:49.850Z,2.93
2018-07-21T18:09:19.436Z,2.90
2018-07-21T18:11:48.419Z,3.17
2018-07-21T18:14:17.151Z,3.20
2018-07-21T18:16:45.885Z,3.87
2018-07-21T18:19:14.545Z,3.27
2018-07-21T18:21:43.159Z,3.50
2018-07-21T18:24:11.805Z,3.60
2018-07-21T18:26:40.463Z,4.37
2018-07-21T18:29:09.203Z,4.13
2018-07-21T18:31:38.050Z,3.70
2018-07-21T18:34:12.903Z,3.17
2018-07-21T18:36:45.934Z,3.77
2018-07-21T18:39:39.813Z,4.57
2018-07-21T18:42:08.502Z,4.43
2018-07-21T18:44:37.144Z,6.20
2018-07-21T18:47:05.827Z,3.60
2018-07-21T18:49:36.498Z,3.90
2018-07-21T18:52:12.064Z,4.57
2018-07-21T18:54:41.668Z,6.73
2018-07-21T18:57:10.819Z,4.20
2018-07-21T18:59:39.450Z,5.23
2018-07-21T19:02:08.046Z,5.20
2018-07-21T19:04:38.713Z,5.63
2018-07-21T19:08:00.176Z,6.97
2018-07-21T19:13:33.052Z,5.60
2018-07-21T19:16:16.804Z,4.50
2018-07-21T19:18:45.191Z,5.00
2018-07-21T19:21:20.840Z,6.20
2018-07-21T19:23:50.146Z,6.83
2018-07-21T19:26:28.098Z,4.70
2018-07-21T19:28:57.128Z,5.27
2018-07-21T19:31:25.431Z,5.80
2018-07-21T19:33:53.719Z,5.97
2018-07-21T19:36:22.163Z,4.27
2018-07-21T19:38:51.096Z,4.60
2018-07-21T19:41:24.880Z,5.27
2018-07-21T19:43:56.525Z,5.40
2018-07-21T19:46:24.919Z,6.10
2018-07-21T19:48:53.381Z,13.30
2018-07-21T19:51:21.706Z,9.53
2018-07-21T19:53:50.004Z,8.07
2018-07-21T19:56:18.360Z,6.97
2018-07-21T19:58:47.723Z,6.30
2018-07-21T20:01:16.184Z,5.93
2018-07-21T20:03:44.521Z,6.50
2018-07-21T20:06:12.884Z,7.13
2018-07-21T20:08:41.391Z,6.83
2018-07-21T20:11:11.187Z,6.30
2018-07-21T20:13:41.955Z,5.73
2018-07-21T20:16:10.257Z,5.97
2018-07-21T20:18:38.612Z,5.63
2018-07-21T20:21:07.273Z,6.27
2018-07-21T20:23:35.998Z,7.10
2018-07-21T20:26:04.385Z,8.07
2018-07-21T20:28:32.702Z,7.20
2018-07-21T20:31:00.964Z,7.33
2018-07-21T20:33:29.490Z,6.20
2018-07-21T20:36:02.941Z,7.10
2018-07-21T20:38:31.601Z,7.30
2018-07-21T20:41:00.083Z,7.80
2018-07-21T20:43:28.500Z,7.20
2018-07-21T20:45:56.799Z,6.83
2018-07-21T20:48:25.326Z,16.17
2018-07-21T20:50:53.759Z,8.07
2018-07-21T20:53:22.424Z,7.60
2018-07-21T20:55:51.563Z,8.50
2018-07-21T20:58:19.954Z,9.10
2018-07-21T21:00:48.441Z,8.27
2018-07-21T21:03:18.848Z,8.47
2018-07-21T21:06:08.672Z,9.03
2018-07-21T21:08:44.017Z,8.67
2018-07-21T21:11:14.619Z,9.00
2018-07-21T21:13:44.260Z,9.20
2018-07-21T21:16:12.568Z,8.40
2018-07-21T21:18:40.981Z,8.23
2018-07-21T21:21:09.429Z,9.80
2018-07-21T21:23:37.897Z,9.47
2018-07-21T21:26:07.277Z,7.73
2018-07-21T21:28:36.549Z,6.97
2018-07-21T21:31:04.904Z,9.10
2018-07-21T21:33:33.249Z,7.90
2018-07-21T21:36:01.678Z,8.20
2018-07-21T21:38:31.886Z,9.07
2018-07-21T21:41:01.885Z,7.90
2018-07-21T21:43:31.951Z,8.43
2018-07-21T21:46:01.527Z,7.30
2018-07-21T21:48:30.955Z,7.80
2018-07-21T21:50:59.905Z,8.77
2018-07-21T21:53:29.305Z,8.67
2018-07-21T21:55:58.281Z,7.53
2018-07-21T21:58:27.776Z,7.90
2018-07-21T22:01:08.836Z,8.30
2018-07-21T22:03:37.186Z,7.63
2018-07-21T22:06:05.997Z,7.60
2018-07-21T22:08:34.706Z,9.10
2018-07-21T22:11:04.426Z,8.73
2018-07-21T22:13:32.795Z,9.27
2018-07-21T22:16:01.587Z,8.87
2018-07-21T22:18:31.199Z,9.40
2018-07-21T22:20:59.456Z,7.10
2018-07-21T22:23:27.843Z,8.00
2018-07-21T22:25:56.602Z,7.50
2018-07-21T22:28:25.180Z,7.60
2018-07-21T22:30:53.493Z,8.37
2018-07-21T22:33:23.024Z,9.30
2018-07-21T22:35:51.412Z,9.90
2018-07-21T22:38:19.964Z,7.50
2018-07-21T22:40:48.350Z,11.00
2018-07-21T22:43:17.057Z,9.27
2018-07-21T22:45:46.196Z,9.80
2018-07-21T22:48:15.150Z,12.80
2018-07-21T22:50:43.834Z,13.20
2018-07-21T22:53:12.112Z,11.30
2018-07-21T22:55:40.379Z,15.53
2018-07-21T22:58:11.245Z,12.53
2018-07-21T23:00:39.802Z,13.20
2018-07-21T23:03:09.148Z,11.83
2018-07-21T23:05:41.153Z,12.47
2018-07-21T23:08:09.587Z,12.30
2018-07-21T23:10:38.572Z,11.60
2018-07-21T23:13:07.811Z,11.87
2018-07-21T23:15:36.206Z,12.87
2018-07-21T23:18:04.708Z,11.97
2018-07-21T23:20:33.056Z,12.40
2018-07-21T23:23:01.781Z,11.70
2018-07-21T23:25:30.058Z,12.37
2018-07-21T23:27:58.376Z,10.83
2018-07-21T23:30:26.776Z,11.87
2018-07-21T23:32:55.198Z,12.00
2018-07-21T23:35:23.917Z,12.00
2018-07-21T23:37:52.208Z,13.73
2018-07-21T23:40:20.524Z,12.50
2018-07-21T23:42:48.940Z,13.67
2018-07-21T23:45:17.415Z,11.97
2018-07-21T23:47:45.740Z,13.37
2018-07-21T23:50:14.108Z,12.90
2018-07-21T23:52:42.821Z,13.60
2018-07-21T23:55:11.357Z,12.03
2018-07-21T23:57:39.680Z,10.93
